createdAt,value
2018-07-28T00:00:01.409Z,7.40
2018-07-28T00:02:30.343Z,8.27
2018-07-28T00:04:59.335Z,9.77
2018-07-28T00:07:28.334Z,11.13
2018-07-28T00:09:57.267Z,9.03
2018-07-28T00:12:26.333Z,11.27
2018-07-28T00:14:55.324Z,12.43
2018-07-28T00:17:24.283Z,11.33
2018-07-28T00:19:53.292Z,8.93
2018-07-28T00:22:22.613Z,9.40
2018-07-28T00:24:51.750Z,9.20
2018-07-28T00:27:20.951Z,8.53
2018-07-28T00:29:50.028Z,8.90
2018-07-28T00:32:19.305Z,10.67
2018-07-28T00:34:48.504Z,8.80
2018-07-28T00:37:17.633Z,8.90
2018-07-28T00:39:47.219Z,10.37
2018-07-28T00:42:16.211Z,10.30
2018-07-28T00:44:45.300Z,11.20
2018-07-28T00:47:14.725Z,10.63
2018-07-28T00:49:43.824Z,11.67
2018-07-28T00:52:12.962Z,11.80
2018-07-28T00:54:42.919Z,16.83
2018-07-28T00:57:12.045Z,9.10
2018-07-28T00:59:41.262Z,10.23
2018-07-28T01:02:10.521Z,11.10
2018-07-28T01:04:39.702Z,9.80
2018-07-28T01:07:08.910Z,8.87
2018-07-28T01:09:38.026Z,9.20
2018-07-28T01:12:07.995Z,9.80
2018-07-28T01:14:37.159Z,9.50
2018-07-28T01:17:06.366Z,9.40
2018-07-28T01:19:35.360Z,11.20
2018-07-28T01:22:04.708Z,9.60
2018-07-28T01:24:34.050Z,10.07
2018-07-28T01:27:03.346Z,10.77
2018-07-28T01:29:32.735Z,10.00
2018-07-28T01:32:01.739Z,11.23
2018-07-28T01:34:30.865Z,10.13
2018-07-28T01:36:59.894Z,11.43
2018-07-28T01:39:28.927Z,11.83
2018-07-28T01:41:57.934Z,10.10
2018-07-28T01:44:27.301Z,14.57
2018-07-28T01:46:56.500Z,16.37
2018-07-28T01:49:25.543Z,11.10
2018-07-28T01:51:54.610Z,13.23
2018-07-28T01:54:23.779Z,10.10
2018-07-28T01:56:52.966Z,10.03
2018-07-28T01:59:22.455Z,14.90
2018-07-28T02:01:51.630Z,12.20
2018-07-28T02:04:20.967Z,13.90
2018-07-28T02:06:50.770Z,12.60
2018-07-28T02:09:19.654Z,11.53
2018-07-28T02:11:48.823Z,9.33
2018-07-28T02:14:17.910Z,11.60
2018-07-28T02:16:46.954Z,14.20
2018-07-28T02:19:15.972Z,11.70
2018-07-28T02:21:45.017Z,11.10
2018-07-28T02:24:14.086Z,16.10
2018-07-28T02:26:43.503Z,10.80
2018-07-28T02:29:12.871Z,11.67
2018-07-28T02:31:42.066Z,13.00
2018-07-28T02:34:11.104Z,12.50
2018-07-28T02:36:40.189Z,11.60
2018-07-28T02:39:10.906Z,11.67
2018-07-28T02:41:40.681Z,12.00
2018-07-28T02:44:10.033Z,10.57
2018-07-28T02:46:39.220Z,12.47
2018-07-28T02:49:08.421Z,12.40
2018-07-28T02:51:37.430Z,12.40
2018-07-28T02:54:06.589Z,12.00
2018-07-28T02:56:35.543Z,13.70
2018-07-28T02:59:05.027Z,11.40
2018-07-28T03:01:34.235Z,10.60
2018-07-28T03:04:03.720Z,12.60
2018-07-28T03:06:32.743Z,11.13
2018-07-28T03:09:01.677Z,10.87
2018-07-28T03:11:30.804Z,11.23
2018-07-28T03:13:59.907Z,11.90
2018-07-28T03:16:29.109Z,14.30
2018-07-28T03:18:58.522Z,14.13
2018-07-28T03:21:27.708Z,11.63
2018-07-28T03:23:57.139Z,13.47
2018-07-28T03:26:26.195Z,12.23
2018-07-28T03:28:55.227Z,11.70
2018-07-28T03:31:24.201Z,12.60
2018-07-28T03:33:53.174Z,15.50
2018-07-28T03:36:22.132Z,13.73
2018-07-28T03:38:51.107Z,13.80
2018-07-28T03:41:20.096Z,14.37
2018-07-28T03:43:49.087Z,14.10
2018-07-28T03:46:18.067Z,17.67
2018-07-28T03:48:47.236Z,13.00
2018-07-28T03:51:16.218Z,13.37
2018-07-28T03:53:45.194Z,14.20
2018-07-28T03:56:14.165Z,12.70
2018-07-28T03:58:43.147Z,13.30
2018-07-28T04:01:12.119Z,15.87
2018-07-28T04:03:40.851Z,23.33
2018-07-28T04:06:09.735Z,14.03
2018-07-28T04:08:38.719Z,12.30
2018-07-28T04:11:07.687Z,16.10
2018-07-28T04:13:36.715Z,16.90
2018-07-28T04:16:05.679Z,17.30
2018-07-28T04:18:34.624Z,15.17
2018-07-28T04:21:03.414Z,17.50
2018-07-28T04:23:32.313Z,17.17
2018-07-28T04:26:01.250Z,16.07
2018-07-28T04:28:30.245Z,18.17
2018-07-28T04:30:59.175Z,16.77
2018-07-28T04:33:28.125Z,21.97
2018-07-28T04:35:57.127Z,19.93
2018-07-28T04:38:26.077Z,21.57
2018-07-28T04:40:55.062Z,16.00
2018-07-28T04:43:24.059Z,17.17
2018-07-28T04:45:53.022Z,17.53
2018-07-28T04:48:22.018Z,17.60
2018-07-28T04:50:51.016Z,16.13
2018-07-28T04:53:20.004Z,19.97
2018-07-28T04:55:48.963Z,16.70
2018-07-28T04:58:17.931Z,13.73
2018-07-28T05:00:46.909Z,21.63
2018-07-28T05:03:15.895Z,15.30
2018-07-28T05:05:44.858Z,16.00
2018-07-28T05:08:13.819Z,15.80
2018-07-28T05:10:42.854Z,15.90
2018-07-28T05:13:11.678Z,13.80
2018-07-28T05:15:40.539Z,13.80
2018-07-28T05:18:09.531Z,16.60
2018-07-28T05:20:38.485Z,15.50
2018-07-28T05:23:07.443Z,12.70
2018-07-28T05:25:36.443Z,13.50
2018-07-28T05:28:05.830Z,16.37
2018-07-28T05:30:34.829Z,15.30
2018-07-28T05:33:03.860Z,13.63
2018-07-28T05:35:32.836Z,17.97
2018-07-28T05:38:02.074Z,16.23
2018-07-28T05:40:31.051Z,16.10
2018-07-28T05:43:00.015Z,15.43
2018-07-28T05:45:35.435Z,13.43
2018-07-28T05:48:04.404Z,15.40
2018-07-28T05:50:33.412Z,13.60
2018-07-28T05:53:02.416Z,13.83
2018-07-28T05:55:31.452Z,14.93
2018-07-28T05:58:00.423Z,12.90
2018-07-28T06:00:29.385Z,12.50
2018-07-28T06:02:58.328Z,18.70
2018-07-28T06:05:27.354Z,13.30
2018-07-28T06:07:56.344Z,13.17
2018-07-28T06:10:25.330Z,12.40
2018-07-28T06:12:54.321Z,12.40
2018-07-28T06:15:23.283Z,14.87
2018-07-28T06:17:52.300Z,12.80
2018-07-28T06:20:21.407Z,13.30
2018-07-28T06:22:50.380Z,12.57
2018-07-28T06:25:19.334Z,13.03
2018-07-28T06:27:48.425Z,13.87
2018-07-28T06:30:17.405Z,15.27
2018-07-28T06:32:46.359Z,21.67
2018-07-28T06:35:15.343Z,22.97
2018-07-28T06:37:44.370Z,16.60
2018-07-28T06:40:13.415Z,14.73
2018-07-28T06:42:42.481Z,13.53
2018-07-28T06:45:11.458Z,13.80
2018-07-28T06:47:40.432Z,14.17
2018-07-28T06:50:09.394Z,15.20
2018-07-28T06:52:38.351Z,13.23
2018-07-28T06:55:07.297Z,13.83
2018-07-28T06:57:36.278Z,14.80
2018-07-28T07:00:07.475Z,14.13
2018-07-28T07:02:36.599Z,12.50
2018-07-28T07:05:06.739Z,12.97
2018-07-28T07:07:35.830Z,12.93
2018-07-28T07:10:05.534Z,13.90
2018-07-28T07:12:34.583Z,16.40
2018-07-28T07:15:03.587Z,24.73
2018-07-28T07:17:32.822Z,12.87
2018-07-28T07:20:01.815Z,13.23
2018-07-28T07:22:31.100Z,15.50
2018-07-28T07:25:00.092Z,13.20
2018-07-28T07:27:29.040Z,12.00
2018-07-28T07:29:58.036Z,13.27
2018-07-28T07:32:27.022Z,11.03
2018-07-28T07:34:55.980Z,10.50
2018-07-28T07:37:24.972Z,13.13
2018-07-28T07:39:53.938Z,9.93
2018-07-28T07:42:24.801Z,8.80
2018-07-28T07:44:53.838Z,11.80
2018-07-28T07:47:22.890Z,9.40
2018-07-28T07:49:51.767Z,9.90
2018-07-28T07:52:20.763Z,10.27
2018-07-28T07:54:49.765Z,10.77
2018-07-28T07:57:18.763Z,11.40
2018-07-28T07:59:47.716Z,11.30
2018-07-28T08:02:16.656Z,10.30
2018-07-28T08:04:45.657Z,10.20
2018-07-28T08:07:14.567Z,10.37
2018-07-28T08:09:43.563Z,12.30
2018-07-28T08:12:12.539Z,11.30
2018-07-28T08:14:41.527Z,11.43
2018-07-28T08:17:10.502Z,11.73
2018-07-28T08:19:39.496Z,13.23
2018-07-28T08:22:08.550Z,12.77
2018-07-28T08:24:37.491Z,12.40
2018-07-28T08:27:06.588Z,11.90
2018-07-28T08:29:35.551Z,14.33
2018-07-28T08:32:04.495Z,15.10
2018-07-28T08:34:33.475Z,15.70
2018-07-28T08:37:02.455Z,24.63
2018-07-28T08:39:31.395Z,16.80
2018-07-28T08:42:00.407Z,12.17
2018-07-28T08:44:29.194Z,16.33
2018-07-28T08:46:58.051Z,15.27
2018-07-28T08:49:27.188Z,13.10
2018-07-28T08:51:56.047Z,13.57
2018-07-28T08:54:25.023Z,15.37
2018-07-28T08:56:54.027Z,16.07
2018-07-28T08:59:23.007Z,13.63
2018-07-28T09:01:51.751Z,14.80
2018-07-28T09:04:21.075Z,16.43
2018-07-28T09:06:50.062Z,13.77
2018-07-28T09:09:19.055Z,14.37
2018-07-28T09:11:48.028Z,14.57
2018-07-28T09:14:17.018Z,14.63
2018-07-28T09:16:45.952Z,12.97
2018-07-28T09:19:14.920Z,13.87
2018-07-28T09:21:43.935Z,14.60
2018-07-28T09:24:12.919Z,16.63
2018-07-28T09:26:41.884Z,25.13
2018-07-28T09:29:11.477Z,18.87
2018-07-28T09:31:40.491Z,17.40
2018-07-28T09:34:09.837Z,16.80
2018-07-28T09:36:38.808Z,15.97
2018-07-28T09:39:08.347Z,20.23
2018-07-28T09:41:37.276Z,15.37
2018-07-28T09:44:06.579Z,14.30
2018-07-28T09:46:35.884Z,16.27
2018-07-28T09:49:04.877Z,14.67
2018-07-28T09:51:33.914Z,14.77
2018-07-28T09:54:02.909Z,22.70
2018-07-28T09:56:31.855Z,13.33
2018-07-28T09:59:00.853Z,11.93
2018-07-28T10:01:29.799Z,13.40
2018-07-28T10:03:58.891Z,16.07
2018-07-28T10:06:27.896Z,13.00
2018-07-28T10:08:56.905Z,14.77
2018-07-28T10:11:25.871Z,14.87
2018-07-28T10:13:54.880Z,19.00
2018-07-28T10:16:23.887Z,23.93
2018-07-28T10:18:52.910Z,13.37
2018-07-28T10:21:21.931Z,13.67
2018-07-28T10:23:50.875Z,15.50
2018-07-28T10:26:19.871Z,14.23
2018-07-28T10:28:48.846Z,16.03
2018-07-28T10:31:17.832Z,17.20
2018-07-28T10:33:46.775Z,15.60
2018-07-28T10:36:15.808Z,23.03
2018-07-28T10:38:44.708Z,16.93
2018-07-28T10:41:13.671Z,19.17
2018-07-28T10:43:42.639Z,23.53
2018-07-28T10:46:11.617Z,23.10
2018-07-28T10:48:40.613Z,18.30
2018-07-28T10:51:09.661Z,17.50
2018-07-28T10:53:38.593Z,24.00
2018-07-28T10:56:07.567Z,23.97
2018-07-28T10:58:36.551Z,20.43
2018-07-28T11:01:05.579Z,18.43
2018-07-28T11:03:34.609Z,20.43
2018-07-28T11:06:03.863Z,13.53
2018-07-28T11:08:32.850Z,19.97
2018-07-28T11:11:01.880Z,17.07
2018-07-28T11:13:30.895Z,21.10
2018-07-28T11:15:59.851Z,16.07
2018-07-28T11:18:28.803Z,16.80
2018-07-28T11:20:57.828Z,14.23
2018-07-28T11:23:38.385Z,15.63
2018-07-28T11:26:07.489Z,17.50
2018-07-28T11:28:36.340Z,13.73
2018-07-28T11:31:05.298Z,15.53
2018-07-28T11:33:45.705Z,28.30
2018-07-28T11:36:26.175Z,12.50
2018-07-28T11:39:06.736Z,15.80
2018-07-28T11:41:47.206Z,23.20
2018-07-28T11:44:27.717Z,20.23
2018-07-28T11:46:56.687Z,17.33
2018-07-28T11:49:25.674Z,16.70
2018-07-28T11:51:54.666Z,17.30
2018-07-28T11:54:23.643Z,21.53
2018-07-28T11:56:52.643Z,17.60
2018-07-28T11:59:21.599Z,18.73
2018-07-28T12:01:50.627Z,15.00
2018-07-28T12:04:19.627Z,21.40
2018-07-28T12:06:48.691Z,18.03
2018-07-28T12:09:17.703Z,18.90
2018-07-28T12:11:46.675Z,13.43
2018-07-28T12:14:15.678Z,16.37
2018-07-28T12:16:44.655Z,15.90
2018-07-28T12:19:13.640Z,16.27
2018-07-28T12:21:42.623Z,26.50
2018-07-28T12:24:11.818Z,19.63
2018-07-28T12:26:40.854Z,17.37
2018-07-28T12:29:09.866Z,18.97
2018-07-28T12:31:38.854Z,20.80
2018-07-28T12:34:07.811Z,15.87
2018-07-28T12:36:37.043Z,18.37
2018-07-28T12:39:07.923Z,14.27
2018-07-28T12:41:36.947Z,15.97
2018-07-28T12:44:05.939Z,13.80
2018-07-28T12:46:41.888Z,13.80
2018-07-28T12:49:10.834Z,13.73
2018-07-28T12:51:39.872Z,16.40
2018-07-28T12:54:08.874Z,14.47
2018-07-28T12:56:38.351Z,16.60
2018-07-28T12:59:07.347Z,17.93
2018-07-28T13:01:36.402Z,19.87
2018-07-28T13:04:06.155Z,24.80
2018-07-28T13:06:35.128Z,26.30
2018-07-28T13:09:05.167Z,29.50
2018-07-28T13:11:34.157Z,33.30
2018-07-28T13:14:03.422Z,31.20
2018-07-28T13:16:32.704Z,33.43
2018-07-28T13:19:01.673Z,34.97
2018-07-28T13:21:30.663Z,36.90
2018-07-28T13:23:59.663Z,40.27
2018-07-28T13:26:28.659Z,42.33
2018-07-28T13:28:57.709Z,43.50
2018-07-28T13:31:26.672Z,47.13
2018-07-28T13:33:55.651Z,50.80
2018-07-28T13:36:24.619Z,56.67
2018-07-28T13:38:53.591Z,56.67
2018-07-28T13:41:22.599Z,81.27
2018-07-28T13:43:51.609Z,54.40
2018-07-28T13:46:20.659Z,60.40
2018-07-28T13:48:49.654Z,58.73
2018-07-28T13:51:18.668Z,55.03
2018-07-28T13:53:47.812Z,55.60
2018-07-28T13:56:16.944Z,52.07
2018-07-28T13:58:46.125Z,57.50
2018-07-28T14:01:15.129Z,58.50
2018-07-28T14:03:44.079Z,52.53
2018-07-28T14:06:12.988Z,41.73
2018-07-28T14:08:41.771Z,45.30
2018-07-28T14:11:10.780Z,43.10
2018-07-28T14:13:39.799Z,47.10
2018-07-28T14:16:08.935Z,46.00
2018-07-28T14:18:37.950Z,47.27
2018-07-28T14:21:07.112Z,41.43
2018-07-28T14:23:36.219Z,39.43
2018-07-28T14:26:05.291Z,41.47
2018-07-28T14:28:34.271Z,41.63
2018-07-28T14:31:03.221Z,45.70
2018-07-28T14:33:32.200Z,45.27
2018-07-28T14:36:01.665Z,43.30
2018-07-28T14:38:30.651Z,48.73
2018-07-28T14:40:59.726Z,51.43
2018-07-28T14:43:28.724Z,45.67
2018-07-28T14:45:57.742Z,43.37
2018-07-28T14:48:26.680Z,39.40
2018-07-28T14:50:55.664Z,48.03
2018-07-28T14:53:24.620Z,34.30
2018-07-28T14:55:53.778Z,25.57
2018-07-28T14:58:22.773Z,29.73
2018-07-28T15:00:51.775Z,37.33
2018-07-28T15:03:20.871Z,21.50
2018-07-28T15:05:49.871Z,22.20
2018-07-28T15:08:19.090Z,18.83
2018-07-28T15:10:48.057Z,16.23
2018-07-28T15:13:17.022Z,20.20
2018-07-28T15:15:46.072Z,20.97
2018-07-28T15:18:15.033Z,19.97
2018-07-28T15:20:44.077Z,21.80
2018-07-28T15:23:13.028Z,22.00
2018-07-28T15:25:42.006Z,20.40
2018-07-28T15:28:11.024Z,18.80
2018-07-28T15:30:39.995Z,20.70
2018-07-28T15:33:09.008Z,29.60
2018-07-28T15:35:37.987Z,18.03
2018-07-28T15:38:06.986Z,17.60
2018-07-28T15:40:35.939Z,20.80
2018-07-28T15:43:04.951Z,19.20
2018-07-28T15:45:33.929Z,16.33
2018-07-28T15:48:02.904Z,15.07
2018-07-28T15:50:31.867Z,15.93
2018-07-28T15:53:00.878Z,17.90
2018-07-28T15:55:29.854Z,14.80
2018-07-28T15:57:58.881Z,13.23
2018-07-28T16:00:27.833Z,15.07
2018-07-28T16:02:56.931Z,14.60
2018-07-28T16:05:25.879Z,12.93
2018-07-28T16:07:54.849Z,14.47
2018-07-28T16:10:23.805Z,15.47
2018-07-28T16:12:52.851Z,15.50
2018-07-28T16:15:21.791Z,16.27
2018-07-28T16:17:50.819Z,15.37
2018-07-28T16:20:19.861Z,12.57
2018-07-28T16:22:48.835Z,15.90
2018-07-28T16:25:17.903Z,13.07
2018-07-28T16:27:46.993Z,12.83
2018-07-28T16:30:15.905Z,13.63
2018-07-28T16:32:44.743Z,13.33
2018-07-28T16:35:13.726Z,12.30
2018-07-28T16:37:42.704Z,12.27
2018-07-28T16:40:11.705Z,13.50
2018-07-28T16:42:40.727Z,13.37
2018-07-28T16:45:09.713Z,13.57
2018-07-28T16:47:38.673Z,14.70
2018-07-28T16:50:07.666Z,14.40
2018-07-28T16:52:36.639Z,15.80
2018-07-28T16:55:05.758Z,18.20
2018-07-28T16:57:34.755Z,21.40
2018-07-28T17:00:03.930Z,16.93
2018-07-28T17:02:32.899Z,15.83
2018-07-28T17:05:01.889Z,15.70
2018-07-28T17:07:30.927Z,14.53
2018-07-28T17:09:59.863Z,15.13
2018-07-28T17:12:28.858Z,17.00
2018-07-28T17:14:57.859Z,19.40
2018-07-28T17:17:26.871Z,16.00
2018-07-28T17:19:56.507Z,20.60
2018-07-28T17:22:25.591Z,21.10
2018-07-28T17:24:54.628Z,18.33
2018-07-28T17:27:23.860Z,17.90
2018-07-28T17:29:52.820Z,19.83
2018-07-28T17:32:21.908Z,17.80
2018-07-28T17:34:51.083Z,21.20
2018-07-28T17:37:20.153Z,21.77
2018-07-28T17:39:49.565Z,15.70
2018-07-28T17:42:18.494Z,17.20
2018-07-28T17:44:47.436Z,17.50
2018-07-28T17:47:16.679Z,16.80
2018-07-28T17:49:45.708Z,15.70
2018-07-28T17:52:14.673Z,15.47
2018-07-28T17:54:43.827Z,16.20
2018-07-28T17:57:13.698Z,13.50
2018-07-28T17:59:42.785Z,14.60
2018-07-28T18:02:11.920Z,19.97
2018-07-28T18:04:40.899Z,16.53
2018-07-28T18:07:09.996Z,16.23
2018-07-28T18:09:39.154Z,18.07
2018-07-28T18:12:08.167Z,18.57
2018-07-28T18:14:37.024Z,25.57
2018-07-28T18:17:05.868Z,15.80
2018-07-28T18:19:34.952Z,17.90
2018-07-28T18:22:03.935Z,16.47
2018-07-28T18:24:33.734Z,16.20
2018-07-28T18:27:03.625Z,15.57
2018-07-28T18:29:32.637Z,17.53
2018-07-28T18:32:02.223Z,21.30
2018-07-28T18:34:31.203Z,16.40
2018-07-28T18:37:00.005Z,16.50
2018-07-28T18:39:28.839Z,16.87
2018-07-28T18:41:57.817Z,17.10
2018-07-28T18:44:26.882Z,16.17
2018-07-28T18:46:55.935Z,18.23
2018-07-28T18:49:25.495Z,18.97
2018-07-28T18:51:54.794Z,23.77
2018-07-28T18:54:23.826Z,18.20
2018-07-28T18:56:53.527Z,18.27
2018-07-28T18:59:23.021Z,18.67
2018-07-28T19:01:52.178Z,15.23
2018-07-28T19:04:21.151Z,18.57
2018-07-28T19:06:50.150Z,16.40
2018-07-28T19:09:25.567Z,15.43
2018-07-28T19:11:54.613Z,18.57
2018-07-28T19:14:29.066Z,16.23
2018-07-28T19:16:58.026Z,19.00
2018-07-28T19:19:27.028Z,16.80
2018-07-28T19:21:56.021Z,18.47
2018-07-28T19:24:25.555Z,18.07
2018-07-28T19:26:55.324Z,18.37
2018-07-28T19:29:29.694Z,19.57
2018-07-28T19:31:58.575Z,17.53
2018-07-28T19:34:27.576Z,17.63
2018-07-28T19:37:02.067Z,17.50
2018-07-28T19:39:31.412Z,17.13
2018-07-28T19:42:05.651Z,14.30
2018-07-28T19:44:34.735Z,15.60
2018-07-28T19:47:03.612Z,14.63
2018-07-28T19:49:32.574Z,15.73
2018-07-28T19:52:01.850Z,13.80
2018-07-28T19:54:30.825Z,13.70
2018-07-28T19:56:59.839Z,9.70
2018-07-28T19:59:28.991Z,9.03
2018-07-28T20:01:57.824Z,7.57
2018-07-28T20:04:26.769Z,5.93
2018-07-28T20:06:56.333Z,6.57
2018-07-28T20:09:25.287Z,5.03
2018-07-28T20:11:54.467Z,5.20
2018-07-28T20:14:23.553Z,4.93
2018-07-28T20:16:53.220Z,4.30
2018-07-28T20:19:22.705Z,4.77
2018-07-28T20:21:51.630Z,8.07
2018-07-28T20:24:20.628Z,8.80
2018-07-28T20:26:49.601Z,7.67
2018-07-28T20:29:18.663Z,11.07
2018-07-28T20:31:47.695Z,11.13
2018-07-28T20:34:16.779Z,11.77
2018-07-28T20:36:45.734Z,13.20
2018-07-28T20:39:14.796Z,13.80
2018-07-28T20:41:43.755Z,13.10
2018-07-28T20:44:12.722Z,15.40
2018-07-28T20:46:41.707Z,16.80
2018-07-28T20:49:10.744Z,18.00
2018-07-28T20:51:39.655Z,19.80
2018-07-28T20:54:09.288Z,20.90
2018-07-28T20:56:38.355Z,20.80
2018-07-28T20:59:07.299Z,19.80
2018-07-28T21:01:36.073Z,21.50
2018-07-28T21:04:04.911Z,20.50
2018-07-28T21:06:34.403Z,22.53
2018-07-28T21:09:03.793Z,20.33
2018-07-28T21:11:32.972Z,21.30
2018-07-28T21:14:01.979Z,22.27
2018-07-28T21:16:31.016Z,23.50
2018-07-28T21:18:59.978Z,21.90
2018-07-28T21:21:28.979Z,26.70
2018-07-28T21:23:58.418Z,23.40
2018-07-28T21:26:27.426Z,26.00
2018-07-28T21:28:56.397Z,28.30
2018-07-28T21:31:25.824Z,24.27
2018-07-28T21:33:54.871Z,27.10
2018-07-28T21:36:24.387Z,25.07
2018-07-28T21:38:53.732Z,25.00
2018-07-28T21:41:23.967Z,30.00
2018-07-28T21:43:53.302Z,25.90
2018-07-28T21:46:22.134Z,22.87
2018-07-28T21:48:51.499Z,23.70
2018-07-28T21:51:20.493Z,23.10
2018-07-28T21:53:49.532Z,23.97
2018-07-28T21:56:22.720Z,22.03
2018-07-28T21:58:52.348Z,21.93
2018-07-28T22:01:21.909Z,28.27
2018-07-28T22:03:50.893Z,25.50
2018-07-28T22:06:20.051Z,27.47
2018-07-28T22:08:50.146Z,30.67
2018-07-28T22:11:19.132Z,30.70
2018-07-28T22:13:48.075Z,34.43
2018-07-28T22:16:17.136Z,30.57
2018-07-28T22:18:46.175Z,26.43
2018-07-28T22:21:15.126Z,24.23
2018-07-28T22:23:44.177Z,23.40
2018-07-28T22:26:13.107Z,26.13
2018-07-28T22:28:42.196Z,23.87
2018-07-28T22:31:11.235Z,24.20
2018-07-28T22:33:47.122Z,21.50
2018-07-28T22:36:16.115Z,22.93
2018-07-28T22:38:45.083Z,22.30
2018-07-28T22:41:14.090Z,24.57
2018-07-28T22:43:43.577Z,22.60
2018-07-28T22:46:12.587Z,23.13
2018-07-28T22:48:41.563Z,22.57
2018-07-28T22:51:10.656Z,23.43
2018-07-28T22:53:39.648Z,26.03
2018-07-28T22:56:08.683Z,23.57
2018-07-28T22:58:37.795Z,22.47
2018-07-28T23:01:07.048Z,21.93
2018-07-28T23:03:36.100Z,23.37
2018-07-28T23:06:04.834Z,25.23
2018-07-28T23:08:33.806Z,24.77
2018-07-28T23:11:02.775Z,21.20
2018-07-28T23:13:31.744Z,27.90
2018-07-28T23:16:00.696Z,26.13
2018-07-28T23:18:29.651Z,30.10
2018-07-28T23:20:58.612Z,30.50
2018-07-28T23:23:27.399Z,27.07
2018-07-28T23:25:56.279Z,30.97
2018-07-28T23:28:25.275Z,28.20
2018-07-28T23:30:54.239Z,26.60
2018-07-28T23:33:23.239Z,33.40
2018-07-28T23:35:52.246Z,32.80
2018-07-28T23:38:21.214Z,34.50
2018-07-28T23:40:50.187Z,31.90
2018-07-28T23:43:19.196Z,31.83
2018-07-28T23:45:48.203Z,38.03
2018-07-28T23:48:17.283Z,31.87
2018-07-28T23:50:46.310Z,33.27
2018-07-28T23:53:15.302Z,40.50
2018-07-28T23:55:44.305Z,33.53
2018-07-28T23:58:13.310Z,36.33
